createdAt,value
2022-10-05T00:00:47.172Z,101530.97
2022-10-05T00:02:19.637Z,101525.78
2022-10-05T00:03:51.637Z,101522.34
2022-10-05T00:05:26.566Z,101522.34
2022-10-05T00:07:00.983Z,101518.88
2022-10-05T00:08:34.455Z,101521.53
2022-10-05T00:10:11.534Z,101519.84
2022-10-05T00:11:43.388Z,101519.09
2022-10-05T00:13:16.063Z,101519.13
2022-10-05T00:14:48.501Z,101514.78
2022-10-05T00:16:20.918Z,101515.69
2022-10-05T00:17:52.371Z,101514.88
2022-10-05T00:19:30.924Z,101516.66
2022-10-05T00:21:02.628Z,101517.56
2022-10-05T00:22:34.060Z,101509.63
2022-10-05T00:24:09.904Z,101507.91
2022-10-05T00:25:41.344Z,101503.63
2022-10-05T00:27:15.492Z,101508.06
2022-10-05T00:28:47.282Z,101505.41
2022-10-05T00:30:20.493Z,101500.97
2022-10-05T00:31:53.322Z,101504.50
2022-10-05T00:33:25.086Z,101509.78
2022-10-05T00:34:58.440Z,101500.13
2022-10-05T00:36:29.952Z,101499.31
2022-10-05T00:38:01.834Z,101494.03
2022-10-05T00:39:36.236Z,101496.66
2022-10-05T00:41:11.334Z,101499.41
2022-10-05T00:42:49.736Z,101499.41
2022-10-05T00:44:30.475Z,101500.28
2022-10-05T00:46:07.694Z,101500.31
2022-10-05T00:47:45.114Z,101495.91
2022-10-05T00:49:22.316Z,101507.38
2022-10-05T00:51:09.636Z,101509.97
2022-10-05T00:52:45.430Z,101507.34
2022-10-05T00:54:21.895Z,101506.44
2022-10-05T00:55:57.977Z,101504.66
2022-10-05T00:57:34.669Z,101494.88
2022-10-05T00:59:11.927Z,101495.75
2022-10-05T01:00:50.250Z,101505.50
2022-10-05T01:02:26.761Z,101504.69
2022-10-05T01:04:04.849Z,101509.13
2022-10-05T01:05:47.168Z,101501.28
2022-10-05T01:07:25.772Z,101511.91
2022-10-05T01:09:02.591Z,101497.03
2022-10-05T01:10:36.849Z,101505.94
2022-10-05T01:12:14.807Z,101506.88
2022-10-05T01:13:51.207Z,101506.00
2022-10-05T01:15:26.192Z,101498.13
2022-10-05T01:16:59.939Z,101499.03
2022-10-05T01:18:39.023Z,101499.03
2022-10-05T01:20:15.414Z,101500.88
2022-10-05T01:21:52.006Z,101496.50
2022-10-05T01:23:35.633Z,101500.91
2022-10-05T01:25:17.916Z,101503.59
2022-10-05T01:27:01.765Z,101497.47
2022-10-05T01:28:35.677Z,101489.59
2022-10-05T01:30:10.943Z,101490.50
2022-10-05T01:31:45.663Z,101485.31
2022-10-05T01:33:20.133Z,101482.59
2022-10-05T01:34:54.446Z,101485.22
2022-10-05T01:36:32.005Z,101476.44
2022-10-05T01:38:12.487Z,101472.16
2022-10-05T01:39:47.261Z,101471.28
2022-10-05T01:41:26.320Z,101478.41
2022-10-05T01:43:03.576Z,101476.63
2022-10-05T01:44:40.940Z,101484.53
2022-10-05T01:46:18.535Z,101471.34
2022-10-05T01:47:51.593Z,101468.69
2022-10-05T01:49:33.454Z,101479.25
2022-10-05T01:51:12.823Z,101473.22
2022-10-05T01:52:50.910Z,101473.22
2022-10-05T01:54:26.214Z,101471.50
2022-10-05T01:56:02.492Z,101468.84
2022-10-05T01:57:41.540Z,101470.63
2022-10-05T01:59:20.211Z,101470.63
2022-10-05T02:01:00.219Z,101469.75
2022-10-05T02:02:34.665Z,101464.53
2022-10-05T02:04:10.354Z,101471.53
2022-10-05T02:05:46.883Z,101464.53
2022-10-05T02:07:21.188Z,101458.56
2022-10-05T02:08:55.518Z,101464.81
2022-10-05T02:10:28.628Z,101462.22
2022-10-05T02:12:02.946Z,101464.00
2022-10-05T02:13:38.624Z,101458.78
2022-10-05T02:15:12.762Z,101462.41
2022-10-05T02:16:47.038Z,101457.25
2022-10-05T02:18:20.177Z,101459.97
2022-10-05T02:19:52.979Z,101451.91
2022-10-05T02:21:24.948Z,101455.31
2022-10-05T02:22:59.280Z,101445.66
2022-10-05T02:24:34.712Z,101451.75
2022-10-05T02:26:08.645Z,101446.44
2022-10-05T02:27:44.380Z,101452.53
2022-10-05T02:29:17.248Z,101444.56
2022-10-05T02:30:52.602Z,101450.69
2022-10-05T02:32:28.438Z,101453.34
2022-10-05T02:34:18.121Z,101452.38
2022-10-05T02:35:49.722Z,101448.00
2022-10-05T02:37:24.945Z,101447.16
2022-10-05T02:38:59.925Z,101444.47
2022-10-05T02:40:37.944Z,101439.03
2022-10-05T02:42:13.216Z,101441.63
2022-10-05T02:43:48.635Z,101450.41
2022-10-05T02:45:26.224Z,101446.88
2022-10-05T02:47:01.997Z,101444.22
2022-10-05T02:48:42.239Z,101443.31
2022-10-05T02:50:20.571Z,101444.97
2022-10-05T02:51:58.145Z,101438.84
2022-10-05T02:53:35.299Z,101440.56
2022-10-05T02:55:10.389Z,101437.00
2022-10-05T02:56:47.345Z,101430.91
2022-10-05T02:58:22.664Z,101428.28
2022-10-05T02:59:58.104Z,101429.13
2022-10-05T03:01:31.993Z,101425.59
2022-10-05T03:03:06.460Z,101427.31
2022-10-05T03:04:41.421Z,101424.72
2022-10-05T03:06:17.169Z,101429.13
2022-10-05T03:07:53.164Z,101430.91
2022-10-05T03:09:28.996Z,101426.59
2022-10-05T03:11:06.435Z,101420.50
2022-10-05T03:12:48.685Z,101424.81
2022-10-05T03:14:23.517Z,101418.72
2022-10-05T03:16:11.191Z,101411.72
2022-10-05T03:17:47.894Z,101413.44
2022-10-05T03:19:30.336Z,101414.31
2022-10-05T03:21:08.064Z,101421.38
2022-10-05T03:22:47.076Z,101418.72
2022-10-05T03:24:25.915Z,101417.81
2022-10-05T03:26:10.417Z,101419.53
2022-10-05T03:27:44.679Z,101414.25
2022-10-05T03:29:22.712Z,101415.88
2022-10-05T03:30:59.829Z,101412.31
2022-10-05T03:32:34.792Z,101415.94
2022-10-05T03:34:09.900Z,101400.16
2022-10-05T03:35:48.589Z,101406.25
2022-10-05T03:37:27.961Z,101401.88
2022-10-05T03:39:03.841Z,101392.22
2022-10-05T03:40:38.530Z,101401.00
2022-10-05T03:42:17.354Z,101398.41
2022-10-05T03:44:06.806Z,101384.41
2022-10-05T03:45:42.764Z,101381.81
2022-10-05T03:47:16.544Z,101376.59
2022-10-05T03:48:52.467Z,101387.16
2022-10-05T03:50:27.537Z,101388.06
2022-10-05T03:52:00.848Z,101382.00
2022-10-05T03:53:38.059Z,101383.78
2022-10-05T03:55:14.251Z,101383.66
2022-10-05T03:56:49.747Z,101382.78
2022-10-05T03:58:25.528Z,101382.72
2022-10-05T04:00:00.495Z,101381.81
2022-10-05T04:01:38.157Z,101382.69
2022-10-05T04:03:12.280Z,101380.91
2022-10-05T04:04:46.920Z,101379.13
2022-10-05T04:06:20.936Z,101382.56
2022-10-05T04:07:56.674Z,101376.31
2022-10-05T04:09:32.861Z,101380.63
2022-10-05T04:11:05.978Z,101377.19
2022-10-05T04:12:40.844Z,101375.47
2022-10-05T04:14:15.268Z,101370.06
2022-10-05T04:15:52.729Z,101378.72
2022-10-05T04:17:32.828Z,101375.16
2022-10-05T04:19:10.805Z,101379.53
2022-10-05T04:20:44.365Z,101374.25
2022-10-05T04:22:20.835Z,101375.13
2022-10-05T04:23:55.516Z,101373.38
2022-10-05T04:25:29.613Z,101383.19
2022-10-05T04:27:04.660Z,101381.31
2022-10-05T04:28:41.639Z,101376.91
2022-10-05T04:30:14.585Z,101380.44
2022-10-05T04:31:52.203Z,101377.03
2022-10-05T04:33:27.272Z,101371.66
2022-10-05T04:35:09.618Z,101368.09
2022-10-05T04:36:45.775Z,101368.97
2022-10-05T04:38:26.523Z,101373.38
2022-10-05T04:40:05.087Z,101380.41
2022-10-05T04:41:45.535Z,101376.84
2022-10-05T04:43:19.490Z,101373.28
2022-10-05T04:45:02.332Z,101374.25
2022-10-05T04:46:42.346Z,101377.81
2022-10-05T04:48:22.441Z,101385.81
2022-10-05T04:50:09.939Z,101383.22
2022-10-05T04:51:50.971Z,101381.38
2022-10-05T04:53:29.183Z,101385.63
2022-10-05T04:55:04.719Z,101385.69
2022-10-05T04:56:38.461Z,101394.41
2022-10-05T04:58:23.968Z,101392.59
2022-10-05T05:00:02.929Z,101382.78
2022-10-05T05:01:44.681Z,101383.63
2022-10-05T05:03:25.709Z,101386.28
2022-10-05T05:05:07.948Z,101385.38
2022-10-05T05:06:46.515Z,101380.06
2022-10-05T05:08:27.479Z,101388.81
2022-10-05T05:10:20.138Z,101394.00
2022-10-05T05:12:03.810Z,101385.06
2022-10-05T05:14:07.093Z,101391.19
2022-10-05T05:15:43.322Z,101379.84
2022-10-05T05:17:21.932Z,101386.84
2022-10-05T05:19:04.095Z,101370.06
2022-10-05T05:20:43.637Z,101383.34
2022-10-05T05:22:18.900Z,101383.28
2022-10-05T05:23:54.507Z,101375.34
2022-10-05T05:25:35.162Z,101381.41
2022-10-05T05:27:15.360Z,101380.38
2022-10-05T05:28:50.800Z,101377.66
2022-10-05T05:30:25.035Z,101383.72
2022-10-05T05:32:00.912Z,101381.09
2022-10-05T05:33:38.042Z,101381.94
2022-10-05T05:35:17.358Z,101379.31
2022-10-05T05:36:54.530Z,101381.13
2022-10-05T05:38:30.172Z,101376.81
2022-10-05T05:40:06.042Z,101382.97
2022-10-05T05:41:39.215Z,101387.38
2022-10-05T05:43:22.180Z,101378.50
2022-10-05T05:44:56.048Z,101387.28
2022-10-05T05:46:51.552Z,101386.31
2022-10-05T05:48:28.732Z,101391.53
2022-10-05T05:50:07.340Z,101389.81
2022-10-05T05:51:43.231Z,101384.53
2022-10-05T05:53:17.340Z,101393.28
2022-10-05T05:54:51.140Z,101384.47
2022-10-05T05:56:26.531Z,101386.16
2022-10-05T05:58:02.254Z,101382.59
2022-10-05T05:59:45.672Z,101376.34
2022-10-05T06:01:32.928Z,101386.91
2022-10-05T06:03:11.235Z,101388.00
2022-10-05T06:04:45.779Z,101389.72
2022-10-05T06:06:18.051Z,101380.00
2022-10-05T06:07:53.909Z,101391.31
2022-10-05T06:09:28.253Z,101386.91
2022-10-05T06:11:21.874Z,101388.63
2022-10-05T06:12:59.640Z,101385.06
2022-10-05T06:14:37.128Z,101392.88
2022-10-05T06:16:12.808Z,101388.41
2022-10-05T06:17:47.092Z,101384.84
2022-10-05T06:19:22.448Z,101390.06
2022-10-05T06:20:57.639Z,101388.25
2022-10-05T06:22:32.848Z,101388.13
2022-10-05T06:24:09.261Z,101395.13
2022-10-05T06:25:44.680Z,101395.13
2022-10-05T06:27:26.204Z,101389.72
2022-10-05T06:29:01.955Z,101397.59
2022-10-05T06:30:40.789Z,101393.03
2022-10-05T06:32:18.942Z,101390.22
2022-10-05T06:33:51.558Z,101387.53
2022-10-05T06:35:36.343Z,101397.13
2022-10-05T06:37:13.049Z,101390.97
2022-10-05T06:38:58.625Z,101389.25
2022-10-05T06:40:37.957Z,101382.13
2022-10-05T06:42:24.302Z,101387.25
2022-10-05T06:44:15.956Z,101381.91
2022-10-05T06:46:18.205Z,101386.22
2022-10-05T06:48:10.828Z,101387.84
2022-10-05T06:50:04.408Z,101385.09
2022-10-05T06:51:43.773Z,101384.06
2022-10-05T06:53:29.102Z,101384.81
2022-10-05T06:55:13.867Z,101380.38
2022-10-05T06:56:49.806Z,101389.06
2022-10-05T06:58:29.697Z,101389.00
2022-10-05T07:00:02.512Z,101388.94
2022-10-05T07:01:41.657Z,101382.72
2022-10-05T07:03:19.705Z,101388.78
2022-10-05T07:05:01.230Z,101391.31
2022-10-05T07:06:35.033Z,101395.63
2022-10-05T07:08:10.484Z,101392.06
2022-10-05T07:09:45.608Z,101392.00
2022-10-05T07:11:24.637Z,101389.34
2022-10-05T07:13:03.114Z,101391.03
2022-10-05T07:14:41.001Z,101377.72
2022-10-05T07:16:17.651Z,101382.88
2022-10-05T07:17:58.305Z,101387.31
2022-10-05T07:19:34.909Z,101386.47
2022-10-05T07:21:09.299Z,101387.31
2022-10-05T07:22:57.533Z,101376.66
2022-10-05T07:24:31.871Z,101374.81
2022-10-05T07:26:07.284Z,101378.25
2022-10-05T07:27:46.199Z,101375.56
2022-10-05T07:29:23.412Z,101380.91
2022-10-05T07:30:58.323Z,101385.28
2022-10-05T07:32:34.868Z,101379.94
2022-10-05T07:34:09.861Z,101378.00
2022-10-05T07:36:05.216Z,101385.03
2022-10-05T07:37:59.948Z,101384.00
2022-10-05T07:39:59.562Z,101385.63
2022-10-05T07:41:37.048Z,101389.88
2022-10-05T07:43:19.014Z,101377.50
2022-10-05T07:44:53.593Z,101370.28
2022-10-05T07:46:28.309Z,101381.59
2022-10-05T07:48:04.647Z,101377.03
2022-10-05T07:49:40.035Z,101375.09
2022-10-05T07:51:15.824Z,101376.69
2022-10-05T07:52:50.034Z,101388.84
2022-10-05T07:54:25.529Z,101375.53
2022-10-05T07:56:02.080Z,101378.06
2022-10-05T07:57:38.306Z,101384.16
2022-10-05T07:59:14.552Z,101370.84
2022-10-05T08:00:54.527Z,101373.19
2022-10-05T08:02:28.346Z,101369.56
2022-10-05T08:04:03.291Z,101373.00
2022-10-05T08:05:37.218Z,101378.38
2022-10-05T08:07:13.308Z,101381.69
2022-10-05T08:08:49.443Z,101371.09
2022-10-05T08:10:26.864Z,101382.47
2022-10-05T08:12:03.775Z,101370.78
2022-10-05T08:13:38.536Z,101370.66
2022-10-05T08:15:14.753Z,101373.91
2022-10-05T08:16:48.423Z,101373.59
2022-10-05T08:18:25.261Z,101369.84
2022-10-05T08:20:03.049Z,101378.34
2022-10-05T08:21:36.421Z,101378.06
2022-10-05T08:23:13.957Z,101372.50
2022-10-05T08:24:49.271Z,101373.06
2022-10-05T08:26:24.184Z,101374.72
2022-10-05T08:27:59.466Z,101367.34
2022-10-05T08:29:33.243Z,101371.59
2022-10-05T08:31:11.013Z,101369.63
2022-10-05T08:32:47.616Z,101365.88
2022-10-05T08:34:22.993Z,101363.09
2022-10-05T08:36:01.945Z,101364.75
2022-10-05T08:37:36.077Z,101361.88
2022-10-05T08:39:12.383Z,101367.03
2022-10-05T08:41:04.589Z,101365.03
2022-10-05T08:42:57.593Z,101359.50
2022-10-05T08:44:45.117Z,101365.50
2022-10-05T08:46:37.370Z,101370.75
2022-10-05T08:48:33.820Z,101373.19
2022-10-05T08:50:17.868Z,101376.38
2022-10-05T08:51:57.085Z,101364.69
2022-10-05T08:53:37.941Z,101368.13
2022-10-05T08:55:22.191Z,101365.22
2022-10-05T08:57:02.340Z,101367.00
2022-10-05T08:58:40.270Z,101363.34
2022-10-05T09:00:17.322Z,101372.81
2022-10-05T09:02:02.096Z,101364.78
2022-10-05T09:03:48.519Z,101369.94
2022-10-05T09:05:28.674Z,101360.88
2022-10-05T09:07:13.667Z,101365.88
2022-10-05T09:08:56.727Z,101362.28
2022-10-05T09:10:48.853Z,101361.19
2022-10-05T09:12:38.199Z,101355.72
2022-10-05T09:14:24.526Z,101348.31
2022-10-05T09:16:08.805Z,101361.16
2022-10-05T09:17:51.351Z,101357.41
2022-10-05T09:19:55.876Z,101353.03
2022-10-05T09:21:39.079Z,101344.69
2022-10-05T09:23:13.551Z,101345.31
2022-10-05T09:24:54.157Z,101349.47
2022-10-05T09:26:41.772Z,101350.31
2022-10-05T09:28:31.215Z,101344.06
2022-10-05T09:30:19.006Z,101341.25
2022-10-05T09:31:58.664Z,101338.34
2022-10-05T09:33:40.858Z,101340.06
2022-10-05T09:35:22.244Z,101352.41
2022-10-05T09:37:08.681Z,101345.56
2022-10-05T09:38:53.384Z,101344.44
2022-10-05T09:40:44.561Z,101340.66
2022-10-05T09:42:38.430Z,101341.47
2022-10-05T09:44:22.702Z,101341.28
2022-10-05T09:46:29.325Z,101342.16
2022-10-05T09:48:21.838Z,101336.91
2022-10-05T09:50:09.875Z,101329.81
2022-10-05T09:51:59.804Z,101345.56
2022-10-05T09:53:52.103Z,101348.31
2022-10-05T09:55:36.113Z,101345.81
2022-10-05T09:57:22.187Z,101345.47
2022-10-05T09:59:17.682Z,101339.00
2022-10-05T10:01:09.435Z,101340.72
2022-10-05T10:03:02.468Z,101341.22
2022-10-05T10:04:48.995Z,101338.22
2022-10-05T10:06:25.301Z,101346.97
2022-10-05T10:08:20.178Z,101339.00
2022-10-05T10:09:59.925Z,101334.31
2022-10-05T10:11:38.646Z,101336.03
2022-10-05T10:13:24.390Z,101333.94
2022-10-05T10:15:29.225Z,101333.63
2022-10-05T10:17:06.886Z,101334.41
2022-10-05T10:19:02.337Z,101337.06
2022-10-05T10:20:45.532Z,101334.97
2022-10-05T10:22:31.885Z,101345.28
2022-10-05T10:24:16.055Z,101337.78
2022-10-05T10:26:00.690Z,101333.13
2022-10-05T10:27:39.059Z,101346.00
2022-10-05T10:29:31.545Z,101343.34
2022-10-05T10:31:23.131Z,101341.16
2022-10-05T10:33:13.690Z,101347.94
2022-10-05T10:35:00.114Z,101341.47
2022-10-05T10:36:47.216Z,101330.66
2022-10-05T10:38:27.620Z,101327.56
2022-10-05T10:40:12.498Z,101334.63
2022-10-05T10:42:04.802Z,101335.28
2022-10-05T10:43:47.125Z,101338.53
2022-10-05T10:45:21.088Z,101324.28
2022-10-05T10:46:59.561Z,101330.28
2022-10-05T10:48:49.053Z,101329.25
2022-10-05T10:50:44.772Z,101328.09
2022-10-05T10:52:25.562Z,101328.00
2022-10-05T10:54:18.192Z,101323.53
2022-10-05T10:56:01.381Z,101308.34
2022-10-05T10:57:40.299Z,101312.06
2022-10-05T10:59:30.767Z,101298.84
2022-10-05T11:01:08.388Z,101306.06
2022-10-05T11:02:53.121Z,101294.41
2022-10-05T11:04:37.385Z,101293.38
2022-10-05T11:06:17.100Z,101287.28
2022-10-05T11:08:01.597Z,101287.50
2022-10-05T11:09:50.456Z,101269.38
2022-10-05T11:11:36.915Z,101267.28
2022-10-05T11:13:16.875Z,101277.84
2022-10-05T11:15:02.419Z,101270.53
2022-10-05T11:16:52.389Z,101262.13
2022-10-05T11:18:28.716Z,101261.16
2022-10-05T11:20:09.381Z,101262.22
2022-10-05T11:21:48.333Z,101259.63
2022-10-05T11:23:29.709Z,101251.00
2022-10-05T11:25:19.152Z,101248.72
2022-10-05T11:27:09.339Z,101253.47
2022-10-05T11:28:45.997Z,101239.41
2022-10-05T11:30:25.589Z,101233.41
2022-10-05T11:32:13.752Z,101238.56
2022-10-05T11:34:09.755Z,101234.63
2022-10-05T11:35:55.388Z,101222.72
2022-10-05T11:37:44.625Z,101218.25
2022-10-05T11:39:35.109Z,101220.63
2022-10-05T11:41:16.626Z,101206.31
2022-10-05T11:43:02.222Z,101219.34
2022-10-05T11:44:51.741Z,101209.44
2022-10-05T11:46:27.179Z,101204.31
2022-10-05T11:48:20.460Z,101198.88
2022-10-05T11:49:55.748Z,101202.13
2022-10-05T11:51:38.271Z,101198.28
2022-10-05T11:53:14.636Z,101187.50
2022-10-05T11:55:10.453Z,101191.78
2022-10-05T11:56:50.712Z,101183.03
2022-10-05T11:58:28.210Z,101190.28
2022-10-05T12:00:07.002Z,101186.97
2022-10-05T12:01:45.919Z,101178.31
2022-10-05T12:03:22.744Z,101183.44
2022-10-05T12:04:58.766Z,101183.25
2022-10-05T12:06:51.743Z,101177.06
2022-10-05T12:08:28.695Z,101171.31
2022-10-05T12:10:14.216Z,101161.38
2022-10-05T12:11:58.373Z,101174.44
2022-10-05T12:13:36.655Z,101169.63
2022-10-05T12:15:17.328Z,101158.78
2022-10-05T12:16:50.995Z,101151.81
2022-10-05T12:18:25.519Z,101141.25
2022-10-05T12:19:58.271Z,101143.06
2022-10-05T12:21:36.204Z,101133.72
2022-10-05T12:23:13.280Z,101134.19
2022-10-05T12:25:02.462Z,101129.16
2022-10-05T12:26:36.459Z,101129.06
2022-10-05T12:28:11.979Z,101126.50
2022-10-05T12:29:47.063Z,101123.09
2022-10-05T12:31:23.251Z,101116.78
2022-10-05T12:33:02.077Z,101108.66
2022-10-05T12:34:38.393Z,101117.94
2022-10-05T12:36:14.069Z,101111.00
2022-10-05T12:37:50.545Z,101114.38
2022-10-05T12:39:26.003Z,101108.16
2022-10-05T12:41:04.233Z,101108.19
2022-10-05T12:42:41.917Z,101109.22
2022-10-05T12:44:18.938Z,101105.78
2022-10-05T12:45:57.192Z,101103.41
2022-10-05T12:47:32.875Z,101097.13
2022-10-05T12:49:14.805Z,101100.34
2022-10-05T12:50:49.143Z,101091.13
2022-10-05T12:52:31.545Z,101086.75
2022-10-05T12:54:07.853Z,101082.19
2022-10-05T12:55:41.906Z,101076.75
2022-10-05T12:57:19.705Z,101074.81
2022-10-05T12:58:53.649Z,101075.16
2022-10-05T13:00:27.295Z,101069.44
2022-10-05T13:02:01.937Z,101072.53
2022-10-05T13:03:36.827Z,101062.69
2022-10-05T13:05:31.106Z,101064.72
2022-10-05T13:07:09.728Z,101058.09
2022-10-05T13:08:48.605Z,101052.31
2022-10-05T13:10:27.934Z,101050.28
2022-10-05T13:12:03.799Z,101046.34
2022-10-05T13:13:43.335Z,101042.59
2022-10-05T13:15:19.855Z,101044.50
2022-10-05T13:16:56.705Z,101037.81
2022-10-05T13:18:33.166Z,101041.84
2022-10-05T13:20:13.982Z,101039.38
2022-10-05T13:21:55.249Z,101032.25
2022-10-05T13:23:31.328Z,101038.94
2022-10-05T13:25:08.551Z,101035.84
2022-10-05T13:26:42.032Z,101031.91
2022-10-05T13:28:16.626Z,101028.69
2022-10-05T13:29:54.295Z,101023.47
2022-10-05T13:31:28.678Z,101022.34
2022-10-05T13:33:06.544Z,101021.75
2022-10-05T13:34:41.693Z,101015.09
2022-10-05T13:36:16.253Z,101007.28
2022-10-05T13:37:52.873Z,101013.38
2022-10-05T13:39:29.767Z,101013.22
2022-10-05T13:41:05.105Z,101014.88
2022-10-05T13:42:42.394Z,101019.28
2022-10-05T13:44:18.086Z,101023.34
2022-10-05T13:45:55.739Z,101012.72
2022-10-05T13:47:31.655Z,101012.28
2022-10-05T13:49:15.356Z,101013.66
2022-10-05T13:50:52.097Z,101016.47
2022-10-05T13:52:29.084Z,101015.00
2022-10-05T13:54:04.781Z,101014.72
2022-10-05T13:55:40.644Z,101018.00
2022-10-05T13:57:21.109Z,100992.81
2022-10-05T13:58:59.457Z,101009.81
2022-10-05T14:00:32.156Z,101006.66
2022-10-05T14:02:05.951Z,101006.97
2022-10-05T14:03:37.979Z,101012.03
2022-10-05T14:05:16.267Z,101004.94
2022-10-05T14:06:48.797Z,101010.25
2022-10-05T14:08:20.675Z,101012.09
2022-10-05T14:09:52.155Z,101008.41
2022-10-05T14:11:26.730Z,101016.66
2022-10-05T14:12:58.203Z,101012.88
2022-10-05T14:14:31.499Z,101003.75
2022-10-05T14:16:14.592Z,101004.78
2022-10-05T14:17:46.209Z,101006.47
2022-10-05T14:19:22.134Z,101004.09
2022-10-05T14:21:14.657Z,101003.69
2022-10-05T14:22:49.140Z,101016.13
2022-10-05T14:24:42.426Z,101007.13
2022-10-05T14:26:30.304Z,101004.47
2022-10-05T14:28:03.276Z,101008.88
2022-10-05T14:29:36.449Z,101019.78
2022-10-05T14:31:13.251Z,101008.41
2022-10-05T14:32:48.955Z,101010.94
2022-10-05T14:34:29.365Z,101012.03
2022-10-05T14:36:01.187Z,101014.16
2022-10-05T14:37:43.356Z,101028.56
2022-10-05T14:39:14.816Z,101025.53
2022-10-05T14:41:01.854Z,101028.50
2022-10-05T14:42:46.259Z,101021.50
2022-10-05T14:44:26.623Z,101022.06
2022-10-05T14:45:58.996Z,101022.00
2022-10-05T14:47:31.489Z,101021.63
2022-10-05T14:49:20.984Z,101032.72
2022-10-05T14:50:54.841Z,101028.50
2022-10-05T14:52:32.280Z,101020.50
2022-10-05T14:54:18.669Z,101038.25
2022-10-05T14:56:10.928Z,101031.69
2022-10-05T14:57:46.123Z,101037.06
2022-10-05T14:59:29.240Z,101044.38
2022-10-05T15:01:02.666Z,101053.34
2022-10-05T15:02:47.883Z,101043.09
2022-10-05T15:04:27.284Z,101034.38
2022-10-05T15:06:00.211Z,101043.53
2022-10-05T15:07:36.023Z,101038.88
2022-10-05T15:09:30.695Z,101046.09
2022-10-05T15:11:05.312Z,101054.13
2022-10-05T15:12:39.655Z,101044.97
2022-10-05T15:14:15.074Z,101049.00
2022-10-05T15:15:49.966Z,101053.84
2022-10-05T15:17:26.960Z,101044.56
2022-10-05T15:19:03.306Z,101048.94
2022-10-05T15:20:37.496Z,101052.34
2022-10-05T15:22:18.625Z,101046.53
2022-10-05T15:23:52.884Z,101055.78
2022-10-05T15:25:30.444Z,101045.09
2022-10-05T15:27:04.060Z,101052.69
2022-10-05T15:28:40.425Z,101050.50
2022-10-05T15:30:13.969Z,101047.84
2022-10-05T15:31:50.937Z,101055.88
2022-10-05T15:33:26.517Z,101049.03
2022-10-05T15:35:20.261Z,101058.19
2022-10-05T15:36:56.560Z,101055.88
2022-10-05T15:38:31.998Z,101070.97
2022-10-05T15:40:05.832Z,101063.06
2022-10-05T15:41:50.564Z,101074.00
2022-10-05T15:43:23.203Z,101077.53
2022-10-05T15:44:59.668Z,101080.25
2022-10-05T15:46:34.441Z,101082.44
2022-10-05T15:48:08.954Z,101091.72
2022-10-05T15:49:46.715Z,101091.44
2022-10-05T15:51:25.467Z,101095.09
2022-10-05T15:53:02.183Z,101096.69
2022-10-05T15:54:52.485Z,101108.25
2022-10-05T15:56:26.221Z,101107.53
2022-10-05T15:58:08.526Z,101112.03
2022-10-05T15:59:43.470Z,101120.19
2022-10-05T16:01:17.110Z,101118.13
2022-10-05T16:02:52.007Z,101130.69
2022-10-05T16:04:30.074Z,101120.47
2022-10-05T16:06:24.854Z,101121.56
2022-10-05T16:08:14.526Z,101132.03
2022-10-05T16:09:50.338Z,101144.56
2022-10-05T16:11:30.021Z,101137.50
2022-10-05T16:13:09.349Z,101140.19
2022-10-05T16:15:00.387Z,101142.13
2022-10-05T16:16:37.339Z,101140.41
2022-10-05T16:18:24.134Z,101141.16
2022-10-05T16:21:31.829Z,101154.53
2022-10-05T16:23:06.810Z,101153.06
2022-10-05T16:24:50.145Z,101155.28
2022-10-05T16:26:31.617Z,101164.38
2022-10-05T16:28:11.532Z,101158.59
2022-10-05T16:29:49.427Z,101167.25
2022-10-05T16:31:25.146Z,101161.25
2022-10-05T16:33:02.472Z,101173.53
2022-10-05T16:34:45.076Z,101176.03
2022-10-05T16:36:22.500Z,101180.78
2022-10-05T16:38:00.349Z,101184.78
2022-10-05T16:39:48.449Z,101190.47
2022-10-05T16:41:23.900Z,101187.41
2022-10-05T16:43:00.672Z,101194.06
2022-10-05T16:44:38.787Z,101208.97
2022-10-05T16:46:15.183Z,101209.31
2022-10-05T16:47:49.305Z,101215.94
2022-10-05T16:49:27.721Z,101200.88
2022-10-05T16:51:10.554Z,101209.91
2022-10-05T16:52:44.232Z,101216.13
2022-10-05T16:54:18.284Z,101231.31
2022-10-05T16:55:52.315Z,101229.50
2022-10-05T16:57:25.933Z,101241.16
2022-10-05T16:59:04.768Z,101240.19
2022-10-05T17:00:48.556Z,101241.16
2022-10-05T17:02:27.986Z,101245.75
2022-10-05T17:04:07.634Z,101237.84
2022-10-05T17:05:57.233Z,101252.28
2022-10-05T17:07:39.288Z,101256.47
2022-10-05T17:09:16.421Z,101265.63
2022-10-05T17:10:56.753Z,101268.75
2022-10-05T17:12:35.427Z,101264.38
2022-10-05T17:14:18.807Z,101266.25
2022-10-05T17:16:00.681Z,101271.34
2022-10-05T17:17:46.956Z,101275.22
2022-10-05T17:19:32.130Z,101275.63
2022-10-05T17:21:07.900Z,101278.81
2022-10-05T17:22:48.009Z,101284.38
2022-10-05T17:24:25.210Z,101288.19
2022-10-05T17:26:02.087Z,101298.22
2022-10-05T17:27:35.192Z,101291.69
2022-10-05T17:29:13.877Z,101289.41
2022-10-05T17:30:48.659Z,101292.50
2022-10-05T17:32:35.996Z,101292.78
2022-10-05T17:34:28.484Z,101291.38
2022-10-05T17:36:17.916Z,101298.66
2022-10-05T17:38:14.063Z,101310.28
2022-10-05T17:39:47.614Z,101309.00
2022-10-05T17:41:23.282Z,101314.34
2022-10-05T17:42:58.009Z,101310.72
2022-10-05T17:44:30.661Z,101333.34
2022-10-05T17:46:02.902Z,101322.84
2022-10-05T17:47:49.251Z,101319.22
2022-10-05T17:49:25.654Z,101328.19
2022-10-05T17:51:15.810Z,101341.81
2022-10-05T17:53:25.767Z,101338.38
2022-10-05T17:55:28.164Z,101332.19
2022-10-05T17:57:18.356Z,101331.34
2022-10-05T17:58:58.853Z,101324.47
2022-10-05T18:00:48.305Z,101324.94
2022-10-05T18:02:21.445Z,101338.66
2022-10-05T18:03:53.020Z,101337.72
2022-10-05T18:05:27.688Z,101335.28
2022-10-05T18:07:00.901Z,101339.94
2022-10-05T18:08:37.679Z,101330.13
2022-10-05T18:10:22.549Z,101340.97
2022-10-05T18:12:08.657Z,101342.69
2022-10-05T18:13:45.411Z,101341.25
2022-10-05T18:15:40.881Z,101340.50
2022-10-05T18:17:13.062Z,101334.31
2022-10-05T18:18:55.772Z,101335.66
2022-10-05T18:20:31.982Z,101337.38
2022-10-05T18:22:10.167Z,101340.03
2022-10-05T18:23:46.304Z,101338.41
2022-10-05T18:25:22.197Z,101337.66
2022-10-05T18:26:59.387Z,101336.78
2022-10-05T18:28:39.166Z,101341.44
2022-10-05T18:30:17.331Z,101340.50
2022-10-05T18:31:55.149Z,101346.59
2022-10-05T18:33:47.243Z,101333.34
2022-10-05T18:35:21.681Z,101341.34
2022-10-05T18:37:07.005Z,101346.78
2022-10-05T18:38:43.686Z,101347.84
2022-10-05T18:40:24.354Z,101349.84
2022-10-05T18:42:01.547Z,101349.34
2022-10-05T18:43:37.926Z,101347.94
2022-10-05T18:45:20.427Z,101349.75
2022-10-05T18:46:55.374Z,101343.75
2022-10-05T18:48:31.064Z,101348.31
2022-10-05T18:50:14.604Z,101341.44
2022-10-05T18:51:51.965Z,101351.34
2022-10-05T18:53:30.187Z,101350.78
2022-10-05T18:55:05.341Z,101349.72